Time;durP1;ratioP1;P1;durP2;ratioP2;P2;SDS_P1;SDS_P2;PMS_P1;PMS_P2;Temp;Humidity;BMP_temperature;BMP_pressure;BME280_temperature;BME280_humidity;BME280_pressure;Samples;Min_cycle;Max_cycle;Signal;HPM_P1;HPM_P2
2023/04/21 00:01:57;;;;;;;;;;;;;;;-140.72;100.00;52766.25;5015906;28;19921;-70
2023/04/21 00:04:23;;;;;;;;;;;;;;;-140.72;100.00;52768.28;5027909;27;19995;-70
2023/04/21 00:06:49;;;;;;;;;;;;;;;-140.72;100.00;52756.13;5025155;28;19970;-70
2023/04/21 00:09:14;;;;;;;;;;;;;;;-140.72;100.00;52782.50;5037697;28;19925;-69
2023/04/21 00:11:39;;;;;;;;;;;;;;;-140.72;100.00;52760.19;5022840;28;20041;-70
2023/04/21 00:14:05;;;;;;;;;;;;;;;-140.72;100.00;52796.72;5026075;28;20276;-70
2023/04/21 00:16:30;;;;;;;;;;;;;;;-140.72;100.00;52790.63;5033535;28;19916;-70
2023/04/21 00:18:55;;;;;;;;;;;;;;;-140.72;100.00;52798.72;5025289;28;20008;-71
2023/04/21 00:21:20;;;;;;;;;;;;;;;-140.72;100.00;52760.19;5037380;28;19925;-70
2023/04/21 00:23:46;;;;;;;;;;;;;;;-140.72;100.00;52780.47;5032833;28;19917;-70
2023/04/21 00:26:11;;;;;;;;;;;;;;;-140.72;100.00;52812.94;5030532;28;20323;-70
2023/04/21 00:28:37;;;;;;;;;;;;;;;-140.72;100.00;52790.63;5025738;28;19965;-69
2023/04/21 00:31:02;;;;;;;;;;;;;;;-140.72;100.00;52796.72;5023878;28;19925;-70
2023/04/21 00:33:27;;;;;;;;;;;;;;;-140.72;100.00;52782.50;5025854;28;19921;-70
2023/04/21 00:35:53;;;;;;;;;;;;;;;-140.72;100.00;52819.03;5028782;28;19924;-70
2023/04/21 00:38:18;;;;;;;;;;;;;;;-140.72;100.00;52780.47;5026782;28;20054;-70
2023/04/21 00:40:44;;;;;;;;;;;;;;;-140.72;100.00;52786.56;5028965;28;20287;-70
2023/04/21 00:43:09;;;;;;;;;;;;;;;-140.72;100.00;52780.47;5032457;28;19921;-70
2023/04/21 00:45:34;;;;;;;;;;;;;;;-140.72;100.00;52776.41;5027099;28;19917;-70
2023/04/21 00:48:00;;;;;;;;;;;;;;;-140.72;100.00;52788.59;5052997;28;19922;-71
2023/04/21 00:50:25;;;;;;;;;;;;;;;-140.72;100.00;52754.09;5028683;28;19923;-70
2023/04/21 00:52:51;;;;;;;;;;;;;;;-140.72;100.00;52778.44;5023966;28;20024;-70
2023/04/21 00:55:16;;;;;;;;;;;;;;;-140.72;100.00;52788.59;5028123;28;19918;-70
2023/04/21 00:57:42;;;;;;;;;;;;;;;-140.72;100.00;52800.75;5049105;28;19936;-70
2023/04/21 01:00:09;;;;;;;;;;;;;;;-140.72;100.00;52784.53;5021282;28;19932;-70
2023/04/21 01:02:35;;;;;;;;;;;;;;;-140.72;100.00;52741.91;5028124;28;19960;-70
2023/04/21 01:05:00;;;;;;;;;;;;;;;-140.72;100.00;52792.66;5022736;28;19922;-70
2023/04/21 01:07:26;;;;;;;;;;;;;;;-140.72;100.00;52790.63;5036238;28;19989;-70
2023/04/21 01:09:51;;;;;;;;;;;;;;;-140.72;100.00;52758.16;5037265;28;19990;-70
2023/04/21 01:12:16;;;;;;;;;;;;;;;-140.72;100.00;52796.72;5045405;28;19941;-71
2023/04/21 01:14:41;;;;;;;;;;;;;;;-140.72;100.00;52772.34;5021473;28;19942;-70
2023/04/21 01:17:07;;;;;;;;;;;;;;;-140.72;100.00;52800.75;5031016;28;19928;-70
2023/04/21 01:19:34;;;;;;;;;;;;;;;-140.72;100.00;52784.53;5037323;28;19925;-70
2023/04/21 01:22:00;;;;;;;;;;;;;;;-140.72;100.00;52812.94;5017249;28;20012;-71
2023/04/21 01:24:38;;;;;;;;;;;;;;;-140.72;100.00;52796.72;5027470;28;19921;-70
2023/04/21 01:27:07;;;;;;;;;;;;;;;-140.72;100.00;52812.94;5025216;28;20000;-70
2023/04/21 01:29:33;;;;;;;;;;;;;;;-140.72;100.00;52794.69;5049154;28;19921;-70
2023/04/21 01:32:03;;;;;;;;;;;;;;;-140.72;100.00;52817.00;5027898;28;19967;-70
2023/04/21 01:34:28;;;;;;;;;;;;;;;-140.72;100.00;52782.50;5038441;28;19928;-70
2023/04/21 01:36:53;;;;;;;;;;;;;;;-140.72;100.00;52754.09;5026584;28;19925;-70
2023/04/21 01:39:18;;;;;;;;;;;;;;;-140.72;100.00;52796.72;5026346;28;20057;-70
2023/04/21 01:41:44;;;;;;;;;;;;;;;-140.72;100.00;52782.50;5028653;28;19921;-70
2023/04/21 01:44:09;;;;;;;;;;;;;;;-140.72;100.00;52812.94;5029403;28;19966;-70
2023/04/21 01:46:34;;;;;;;;;;;;;;;-140.72;100.00;52798.72;5029255;28;19943;-70
2023/04/21 01:49:00;;;;;;;;;;;;;;;-140.72;100.00;52798.72;5025719;28;19922;-70
2023/04/21 01:51:26;;;;;;;;;;;;;;;-140.72;100.00;52814.97;5029251;28;20263;-70
2023/04/21 01:53:51;;;;;;;;;;;;;;;-140.72;100.00;52817.00;5029242;28;20355;-70
2023/04/21 01:56:17;;;;;;;;;;;;;;;-140.72;100.00;52764.25;5019698;28;19968;-70
2023/04/21 01:58:42;;;;;;;;;;;;;;;-140.72;100.00;52788.59;5029452;28;19927;-70
2023/04/21 02:01:08;;;;;;;;;;;;;;;-140.72;100.00;52778.44;5030476;28;19929;-70
2023/04/21 02:03:33;;;;;;;;;;;;;;;-140.72;100.00;52823.09;5034320;28;20286;-70
2023/04/21 02:05:58;;;;;;;;;;;;;;;-140.72;100.00;52788.59;5030230;28;19973;-70
2023/04/21 02:08:23;;;;;;;;;;;;;;;-140.72;100.00;52784.53;5030760;28;19973;-71
2023/04/21 02:10:49;;;;;;;;;;;;;;;-140.72;100.00;52784.53;5031032;28;19962;-70
2023/04/21 02:13:14;;;;;;;;;;;;;;;-140.72;100.00;52804.81;5027915;28;19929;-71
2023/04/21 02:15:40;;;;;;;;;;;;;;;-140.72;100.00;52814.97;5030159;28;20249;-70
2023/04/21 02:18:07;;;;;;;;;;;;;;;-140.72;100.00;52817.00;5029030;28;19925;-70
2023/04/21 02:20:32;;;;;;;;;;;;;;;-140.72;100.00;52788.59;5033909;28;20435;-70
2023/04/21 02:26:00;;;;;;;;;;;;;;;-140.72;100.00;52780.47;5026467;28;20325;-70
2023/04/21 02:28:25;;;;;;;;;;;;;;;-140.72;100.00;52790.63;5034965;28;19955;-70
2023/04/21 02:30:50;;;;;;;;;;;;;;;-140.72;100.00;52776.41;5039770;28;20338;-70
2023/04/21 02:33:15;;;;;;;;;;;;;;;-140.72;100.00;52823.09;5029344;28;20020;-70
2023/04/21 02:35:41;;;;;;;;;;;;;;;-140.72;100.00;52837.28;5029807;28;19924;-71
2023/04/21 02:38:07;;;;;;;;;;;;;;;-140.72;100.00;52821.06;5023794;28;20011;-70
2023/04/21 02:40:33;;;;;;;;;;;;;;;-140.72;100.00;52788.59;5031918;28;19921;-70
2023/04/21 02:42:58;;;;;;;;;;;;;;;-140.72;100.00;52792.66;5030373;28;20299;-70
2023/04/21 02:45:24;;;;;;;;;;;;;;;-140.72;100.00;52800.75;5024320;28;19968;-70
2023/04/21 02:47:49;;;;;;;;;;;;;;;-140.72;100.00;52823.09;5032142;28;19921;-70
2023/04/21 02:50:15;;;;;;;;;;;;;;;-140.72;100.00;52806.84;5027010;28;20418;-70
2023/04/21 02:52:40;;;;;;;;;;;;;;;-140.72;100.00;52845.41;5024319;27;20306;-70
2023/04/21 02:55:05;;;;;;;;;;;;;;;-140.72;100.00;52837.28;5023617;28;20028;-70
2023/04/21 02:57:31;;;;;;;;;;;;;;;-140.72;100.00;52827.16;5045396;28;20298;-70
2023/04/21 02:59:56;;;;;;;;;;;;;;;-140.72;100.00;52821.06;5035248;27;19923;-70
2023/04/21 03:02:21;;;;;;;;;;;;;;;-140.72;100.00;52804.81;5033883;28;20381;-70
2023/04/21 03:04:46;;;;;;;;;;;;;;;-140.72;100.00;52798.72;5031409;28;20019;-70
2023/04/21 03:07:12;;;;;;;;;;;;;;;-140.72;100.00;52835.25;5023667;28;19983;-70
2023/04/21 03:09:37;;;;;;;;;;;;;;;-140.72;100.00;52778.44;5057218;28;19927;-70
2023/04/21 03:12:03;;;;;;;;;;;;;;;-140.72;100.00;52812.94;5029314;28;19921;-70
2023/04/21 03:14:28;;;;;;;;;;;;;;;-140.72;100.00;52810.91;5026187;28;19922;-70
2023/04/21 03:16:53;;;;;;;;;;;;;;;-140.72;100.00;52802.78;5030249;28;19921;-70
2023/04/21 03:19:18;;;;;;;;;;;;;;;-140.72;100.00;52810.91;5027569;28;19921;-70
2023/04/21 03:21:43;;;;;;;;;;;;;;;-140.72;100.00;52810.91;5025485;28;19929;-70
2023/04/21 03:24:09;;;;;;;;;;;;;;;-140.72;100.00;52758.16;5039575;28;19920;-70
2023/04/21 03:26:34;;;;;;;;;;;;;;;-140.72;100.00;52806.84;5031117;28;19917;-70
2023/04/21 03:28:59;;;;;;;;;;;;;;;-140.72;100.00;52808.88;5025936;28;19927;-70
2023/04/21 03:31:24;;;;;;;;;;;;;;;-140.72;100.00;52810.91;5024780;28;19921;-70
2023/04/21 03:33:50;;;;;;;;;;;;;;;-140.72;100.00;52814.97;5021390;28;19974;-70
2023/04/21 03:36:15;;;;;;;;;;;;;;;-140.72;100.00;52869.75;5024769;28;19962;-70
2023/04/21 03:38:40;;;;;;;;;;;;;;;-140.72;100.00;52798.72;5024293;28;19929;-70
2023/04/21 03:41:05;;;;;;;;;;;;;;;-140.72;100.00;52833.22;5028994;28;19921;-70
2023/04/21 03:43:30;;;;;;;;;;;;;;;-140.72;100.00;52796.72;5024097;28;20897;-70
2023/04/21 03:45:56;;;;;;;;;;;;;;;-140.72;100.00;52847.44;5027170;28;19921;-70
2023/04/21 03:48:21;;;;;;;;;;;;;;;-140.72;100.00;52800.75;5042932;27;20454;-70
2023/04/21 03:50:46;;;;;;;;;;;;;;;-140.72;100.00;52798.72;5051060;28;19920;-70
2023/04/21 03:53:12;;;;;;;;;;;;;;;-140.72;100.00;52827.16;5026731;28;20041;-70
2023/04/21 03:55:37;;;;;;;;;;;;;;;-140.72;100.00;52802.78;5028047;28;20449;-70
2023/04/21 03:58:02;;;;;;;;;;;;;;;-140.72;100.00;52825.13;5028177;28;20275;-70
2023/04/21 04:00:27;;;;;;;;;;;;;;;-140.72;100.00;52794.69;5033008;28;20332;-70
2023/04/21 04:02:52;;;;;;;;;;;;;;;-140.72;100.00;52790.63;5029782;28;19920;-70
2023/04/21 04:05:18;;;;;;;;;;;;;;;-140.72;100.00;52831.19;5028830;28;19925;-70
2023/04/21 04:07:44;;;;;;;;;;;;;;;-140.72;100.00;52802.78;5029283;28;19928;-70
2023/04/21 04:10:10;;;;;;;;;;;;;;;-140.72;100.00;52770.31;5026881;28;20020;-70
2023/04/21 04:12:35;;;;;;;;;;;;;;;-140.72;100.00;52853.53;5031773;28;19922;-70
2023/04/21 04:15:01;;;;;;;;;;;;;;;-140.72;100.00;52831.19;5028779;28;19928;-70
2023/04/21 04:17:26;;;;;;;;;;;;;;;-140.72;100.00;52800.75;5028720;28;19921;-70
2023/04/21 04:19:52;;;;;;;;;;;;;;;-140.72;100.00;52804.81;5036908;28;19925;-70
2023/04/21 04:22:17;;;;;;;;;;;;;;;-140.72;100.00;52806.84;5019028;28;20384;-70
2023/04/21 04:24:43;;;;;;;;;;;;;;;-140.72;100.00;52837.28;5028371;28;19999;-70
2023/04/21 04:27:09;;;;;;;;;;;;;;;-140.72;100.00;52800.75;5028462;28;20371;-70
2023/04/21 04:29:35;;;;;;;;;;;;;;;-140.72;100.00;52823.09;5028581;28;19943;-70
2023/04/21 04:32:02;;;;;;;;;;;;;;;-140.72;100.00;52802.78;5027020;28;20396;-70
2023/04/21 04:34:28;;;;;;;;;;;;;;;-140.72;100.00;52817.00;5031959;28;19950;-70
2023/04/21 04:36:53;;;;;;;;;;;;;;;-140.72;100.00;52835.25;5028466;28;19920;-71
2023/04/21 04:39:18;;;;;;;;;;;;;;;-140.72;100.00;52827.16;5028856;28;20443;-70
2023/04/21 04:41:43;;;;;;;;;;;;;;;-140.72;100.00;52829.19;5027355;28;19921;-70
2023/04/21 04:44:09;;;;;;;;;;;;;;;-140.72;100.00;52831.19;5037123;28;20390;-70
2023/04/21 04:46:35;;;;;;;;;;;;;;;-140.72;100.00;52814.97;5032471;28;19921;-70
2023/04/21 04:49:00;;;;;;;;;;;;;;;-140.72;100.00;52861.66;5023943;28;19989;-70
2023/04/21 04:51:26;;;;;;;;;;;;;;;-140.72;100.00;52851.50;5038400;28;19921;-70
2023/04/21 04:53:51;;;;;;;;;;;;;;;-140.72;100.00;52800.75;5040222;28;19969;-70
2023/04/21 04:56:16;;;;;;;;;;;;;;;-140.72;100.00;52829.19;5030685;28;19929;-70
2023/04/21 04:58:42;;;;;;;;;;;;;;;-140.72;100.00;52814.97;5025534;28;19921;-70
2023/04/21 05:01:11;;;;;;;;;;;;;;;-140.72;100.00;52851.50;5058738;28;19923;-70
2023/04/21 05:03:36;;;;;;;;;;;;;;;-140.72;100.00;52810.91;5027955;28;19925;-71
2023/04/21 05:06:02;;;;;;;;;;;;;;;-140.72;100.00;52819.03;5038416;28;20035;-70
2023/04/21 05:08:27;;;;;;;;;;;;;;;-140.72;100.00;52835.25;5026778;28;19921;-70
2023/04/21 05:10:52;;;;;;;;;;;;;;;-140.72;100.00;52821.06;5024072;28;20448;-69
2023/04/21 05:13:17;;;;;;;;;;;;;;;-140.72;100.00;52835.25;5026608;28;19957;-69
2023/04/21 05:15:43;;;;;;;;;;;;;;;-140.72;100.00;52772.34;5041391;28;19968;-70
2023/04/21 05:18:08;;;;;;;;;;;;;;;-140.72;100.00;52817.00;5040916;28;19917;-69
2023/04/21 05:20:33;;;;;;;;;;;;;;;-140.72;100.00;52812.94;5036172;28;20290;-70
2023/04/21 05:22:58;;;;;;;;;;;;;;;-140.72;100.00;52802.78;5040858;28;20387;-70
2023/04/21 05:25:23;;;;;;;;;;;;;;;-140.72;100.00;52774.38;5031423;28;20000;-70
2023/04/21 05:27:49;;;;;;;;;;;;;;;-140.72;100.00;52786.56;5030053;28;20284;-70
2023/04/21 05:30:14;;;;;;;;;;;;;;;-140.72;100.00;52794.69;5031682;28;20379;-70
2023/04/21 05:32:39;;;;;;;;;;;;;;;-140.72;100.00;52814.97;5032776;28;19921;-70
2023/04/21 05:35:05;;;;;;;;;;;;;;;-140.72;100.00;52788.59;5026591;28;19921;-70
2023/04/21 05:37:30;;;;;;;;;;;;;;;-140.72;100.00;52821.06;5022460;28;19936;-71
2023/04/21 05:39:55;;;;;;;;;;;;;;;-140.72;100.00;52798.72;5030477;28;19921;-70
2023/04/21 05:42:20;;;;;;;;;;;;;;;-140.72;100.00;52788.59;5066530;28;19921;-70
2023/04/21 05:44:46;;;;;;;;;;;;;;;-140.72;100.00;52800.75;5026030;28;19917;-70
2023/04/21 05:47:11;;;;;;;;;;;;;;;-140.72;100.00;52810.91;5053790;28;20294;-70
2023/04/21 05:49:36;;;;;;;;;;;;;;;-140.72;100.00;52774.38;5029021;28;20367;-70
2023/04/21 05:52:01;;;;;;;;;;;;;;;-140.72;100.00;52847.44;5025730;28;19913;-70
2023/04/21 05:54:27;;;;;;;;;;;;;;;-140.72;100.00;52800.75;5018967;28;20057;-70
2023/04/21 05:56:52;;;;;;;;;;;;;;;-140.72;100.00;52792.66;5028602;28;19922;-69
2023/04/21 05:59:17;;;;;;;;;;;;;;;-140.72;100.00;52806.84;5032446;28;19928;-70
2023/04/21 06:01:43;;;;;;;;;;;;;;;-140.72;100.00;52764.25;5030895;28;19924;-70
2023/04/21 06:04:08;;;;;;;;;;;;;;;-140.72;100.00;52792.66;5032880;28;19921;-70
2023/04/21 06:06:33;;;;;;;;;;;;;;;-140.72;100.00;52825.13;5029043;28;20384;-71
2023/04/21 06:08:59;;;;;;;;;;;;;;;-140.72;100.00;52821.06;5032158;28;20299;-71
2023/04/21 06:11:24;;;;;;;;;;;;;;;-140.72;100.00;52802.78;5020159;28;20351;-71
2023/04/21 06:13:52;;;;;;;;;;;;;;;-140.72;100.00;52800.75;5035334;28;19928;-72
2023/04/21 06:16:17;;;;;;;;;;;;;;;-140.72;100.00;52817.00;5024290;28;19932;-73
2023/04/21 06:18:42;;;;;;;;;;;;;;;-140.72;100.00;52796.72;5030941;28;19918;-71
2023/04/21 06:21:07;;;;;;;;;;;;;;;-140.72;100.00;52788.59;5031228;28;19940;-69
2023/04/21 06:23:33;;;;;;;;;;;;;;;-140.72;100.00;52760.19;5053716;28;20050;-70
2023/04/21 06:26:03;;;;;;;;;;;;;;;-140.72;100.00;52721.63;5028435;28;20363;-70
2023/04/21 06:28:29;;;;;;;;;;;;;;;-140.72;100.00;52772.34;5030930;28;19921;-70
2023/04/21 06:30:54;;;;;;;;;;;;;;;-140.72;100.00;52800.75;5038636;28;19936;-70
2023/04/21 06:33:19;;;;;;;;;;;;;;;-140.72;100.00;52778.44;5031768;28;19921;-70
2023/04/21 06:35:45;;;;;;;;;;;;;;;-140.72;100.00;52768.28;5027898;28;19921;-70
2023/04/21 06:38:10;;;;;;;;;;;;;;;-140.72;100.00;52748.00;5034209;28;19922;-70
2023/04/21 06:40:35;;;;;;;;;;;;;;;-140.72;100.00;52780.47;5028474;28;19925;-70
2023/04/21 06:43:00;;;;;;;;;;;;;;;-140.72;100.00;52772.34;5053002;27;19920;-71
2023/04/21 06:45:26;;;;;;;;;;;;;;;-140.72;100.00;52788.59;5058457;27;20286;-71
2023/04/21 06:47:51;;;;;;;;;;;;;;;-140.72;100.00;52800.75;5036786;27;20024;-71
2023/04/21 06:50:16;;;;;;;;;;;;;;;-140.72;100.00;52780.47;5029127;28;19928;-71
2023/04/21 06:52:41;;;;;;;;;;;;;;;-140.72;100.00;52814.97;5029949;28;20378;-70
2023/04/21 06:55:07;;;;;;;;;;;;;;;-140.72;100.00;52788.59;5025250;28;19925;-70
2023/04/21 06:57:32;;;;;;;;;;;;;;;-140.72;100.00;52804.81;5047351;28;19951;-70
2023/04/21 06:59:57;;;;;;;;;;;;;;;-140.72;100.00;52760.19;5025595;28;19922;-74
2023/04/21 07:02:22;;;;;;;;;;;;;;;-140.72;100.00;52768.28;5036922;28;19920;-75
2023/04/21 07:04:47;;;;;;;;;;;;;;;-140.72;100.00;52780.47;5025906;27;19963;-75
2023/04/21 07:07:13;;;;;;;;;;;;;;;-140.72;100.00;52756.13;5028356;28;19925;-75
2023/04/21 07:09:38;;;;;;;;;;;;;;;-140.72;100.00;52780.47;5043699;28;19928;-75
2023/04/21 07:12:04;;;;;;;;;;;;;;;-140.72;100.00;52766.25;5028623;28;20011;-75
2023/04/21 07:14:30;;;;;;;;;;;;;;;-140.72;100.00;52756.13;5028365;28;20294;-75
2023/04/21 07:16:56;;;;;;;;;;;;;;;-140.72;100.00;52796.72;5027844;28;20385;-75
2023/04/21 07:19:21;;;;;;;;;;;;;;;-140.72;100.00;52739.88;5041150;28;20046;-74
2023/04/21 07:21:46;;;;;;;;;;;;;;;-140.72;100.00;52748.00;5027110;28;19933;-76
2023/04/21 07:24:13;;;;;;;;;;;;;;;-140.72;100.00;52743.94;5032671;28;19921;-75
2023/04/21 07:26:38;;;;;;;;;;;;;;;-140.72;100.00;52778.44;5026902;28;19928;-72
2023/04/21 07:29:05;;;;;;;;;;;;;;;-140.72;100.00;52760.19;5030115;28;19926;-74
2023/04/21 07:31:30;;;;;;;;;;;;;;;-140.72;100.00;52784.53;5022714;28;19918;-75
2023/04/21 07:33:55;;;;;;;;;;;;;;;-140.72;100.00;52748.00;5029809;28;19925;-72
2023/04/21 07:36:20;;;;;;;;;;;;;;;-140.72;100.00;52735.81;5025298;28;20322;-70
2023/04/21 07:38:45;;;;;;;;;;;;;;;-140.72;100.00;52733.78;5024027;28;19921;-69
2023/04/21 07:41:11;;;;;;;;;;;;;;;-140.72;100.00;52727.72;5028563;27;19974;-72
2023/04/21 07:43:37;;;;;;;;;;;;;;;-140.72;100.00;52729.75;5027208;28;19921;-73
2023/04/21 07:46:02;;;;;;;;;;;;;;;-140.72;100.00;52727.72;5027970;28;19917;-70
2023/04/21 07:48:28;;;;;;;;;;;;;;;-140.72;100.00;52711.47;5029698;28;19921;-70
2023/04/21 07:50:54;;;;;;;;;;;;;;;-140.72;100.00;52717.56;5025771;28;20371;-70
2023/04/21 07:53:19;;;;;;;;;;;;;;;-140.72;100.00;52703.34;5030569;28;19921;-70
2023/04/21 07:55:45;;;;;;;;;;;;;;;-140.72;100.00;52679.00;5019875;28;20376;-69
2023/04/21 07:58:10;;;;;;;;;;;;;;;-140.72;100.00;52683.06;5033392;28;19921;-69
2023/04/21 08:00:35;;;;;;;;;;;;;;;-140.72;100.00;52713.50;5029749;28;20351;-69
2023/04/21 08:03:01;;;;;;;;;;;;;;;-140.72;100.00;52679.00;5032277;28;19928;-71
2023/04/21 08:05:26;;;;;;;;;;;;;;;-140.72;100.00;52727.72;5027929;28;19928;-70
2023/04/21 08:07:51;;;;;;;;;;;;;;;-140.72;100.00;52691.19;5023194;28;20342;-70
2023/04/21 08:10:17;;;;;;;;;;;;;;;-140.72;100.00;52687.13;5034116;28;20291;-70
2023/04/21 08:12:42;;;;;;;;;;;;;;;-140.72;100.00;52703.34;5019410;28;19925;-69
2023/04/21 08:15:08;;;;;;;;;;;;;;;-140.72;100.00;52707.41;5018781;28;19925;-70
2023/04/21 08:17:33;;;;;;;;;;;;;;;-140.72;100.00;52664.81;5024820;28;19928;-71
2023/04/21 08:19:58;;;;;;;;;;;;;;;-140.72;100.00;52628.28;5022170;28;20379;-70
2023/04/21 08:22:24;;;;;;;;;;;;;;;-140.72;100.00;52652.63;5022412;28;19948;-69
2023/04/21 08:24:49;;;;;;;;;;;;;;;-140.72;100.00;52662.78;5018205;28;19956;-70
2023/04/21 08:27:14;;;;;;;;;;;;;;;-140.72;100.00;52691.19;5015624;28;20379;-70
2023/04/21 08:29:39;;;;;;;;;;;;;;;-140.72;100.00;52670.88;5047636;28;19928;-70
2023/04/21 08:32:05;;;;;;;;;;;;;;;-140.72;100.00;52674.94;5026522;28;19969;-70
2023/04/21 08:34:30;;;;;;;;;;;;;;;-140.72;100.00;52652.63;5014836;28;19930;-70
2023/04/21 08:36:55;;;;;;;;;;;;;;;-140.72;100.00;52662.78;5014783;28;20380;-70
2023/04/21 08:39:21;;;;;;;;;;;;;;;-140.72;100.00;52681.03;5032084;28;19925;-70
2023/04/21 08:41:46;;;;;;;;;;;;;;;-140.72;100.00;52662.78;5025014;28;19921;-69
2023/04/21 08:44:11;;;;;;;;;;;;;;;-140.72;100.00;52650.59;5033553;28;20375;-70
2023/04/21 08:46:38;;;;;;;;;;;;;;;-140.72;100.00;52646.53;5017485;28;20017;-70
2023/04/21 08:49:03;;;;;;;;;;;;;;;-140.72;100.00;52650.59;5022918;28;19932;-70
2023/04/21 08:51:31;;;;;;;;;;;;;;;-140.72;100.00;52607.97;5019798;28;19921;-70
2023/04/21 08:53:57;;;;;;;;;;;;;;;-140.72;100.00;52666.84;5023549;28;19922;-70
2023/04/21 08:56:23;;;;;;;;;;;;;;;-140.72;100.00;52589.72;5011746;28;19928;-71
2023/04/21 08:58:52;;;;;;;;;;;;;;;-140.72;100.00;52614.06;5020740;28;19929;-73
2023/04/21 09:01:17;;;;;;;;;;;;;;;-140.72;100.00;52553.19;5026628;28;19977;-72
2023/04/21 09:03:43;;;;;;;;;;;;;;;-140.72;100.00;52585.66;5028536;28;19938;-70
2023/04/21 09:06:08;;;;;;;;;;;;;;;-140.72;100.00;52581.59;4946065;28;2008361;-72
2023/04/21 09:08:36;;;;;;;;;;;;;;;-140.72;100.00;52565.38;5022674;28;19925;-72
2023/04/21 09:11:02;;;;;;;;;;;;;;;-140.72;100.00;52616.09;5021575;28;20004;-71
2023/04/21 09:13:28;;;;;;;;;;;;;;;-140.72;100.00;52591.75;5019329;28;20071;-74
2023/04/21 09:15:54;;;;;;;;;;;;;;;-140.72;100.00;52591.75;5048988;28;20040;-70
2023/04/21 09:18:21;;;;;;;;;;;;;;;-140.72;100.00;52555.22;5018096;28;20004;-74
2023/04/21 09:20:47;;;;;;;;;;;;;;;-140.72;100.00;52601.91;5026294;28;20015;-72
2023/04/21 09:23:12;;;;;;;;;;;;;;;-140.72;100.00;52601.91;5026459;28;19976;-72
2023/04/21 09:25:38;;;;;;;;;;;;;;;-140.72;100.00;52614.06;5025813;28;20391;-73
2023/04/21 09:28:10;;;;;;;;;;;;;;;-140.72;100.00;52549.13;5027051;28;19921;-76
2023/04/21 09:30:37;;;;;;;;;;;;;;;-140.72;100.00;52532.91;5030201;28;19924;-71
2023/04/21 09:33:02;;;;;;;;;;;;;;;-140.72;100.00;52583.63;5028215;28;19923;-75
2023/04/21 09:35:28;;;;;;;;;;;;;;;-140.72;87.78;52585.66;5072946;28;19920;-74
2023/04/21 09:37:53;;;;;;;;;;;;;;;-140.72;94.92;52577.53;5037036;28;19921;-74
2023/04/21 09:40:18;;;;;;;;;;;;;;;-140.72;78.45;52476.09;5025489;28;19921;-74
2023/04/21 09:42:44;;;;;;;;;;;;;;;-140.72;54.74;52532.91;5028145;28;19927;-74
2023/04/21 09:45:10;;;;;;;;;;;;;;;-140.72;39.63;52541.03;5029449;28;19949;-74
2023/04/21 09:47:40;;;;;;;;;;;;;;;-140.72;29.89;52553.19;5018347;28;19921;-70
2023/04/21 09:50:06;;;;;;;;;;;;;;;-140.72;21.97;52543.03;5028456;28;20876;-70
2023/04/21 09:52:32;;;;;;;;;;;;;;;-140.72;9.72;52565.38;5029742;28;19925;-70
2023/04/21 09:55:00;;;;;;;;;;;;;;;-140.72;2.50;52532.91;5014843;28;19918;-70
2023/04/21 09:57:26;;;;;;;;;;;;;;;-140.72;8.16;52561.31;5030825;28;19962;-72
2023/04/21 10:00:11;;;;;;;;;;;;;;;-140.72;0.00;52530.88;5019341;28;20012;-76
2023/04/21 10:03:10;;;;;;;;;;;;;;;-140.72;0.00;52567.41;5027314;28;19928;-76
2023/04/21 10:05:36;;;;;;;;;;;;;;;-140.72;0.00;52547.09;5074405;27;19965;-77
2023/04/21 10:08:02;;;;;;;;;;;;;;;-140.72;0.00;52530.88;5041696;27;19986;-72
2023/04/21 10:10:30;;;;;;;;;;;;;;;-140.72;0.97;52496.38;5022383;28;19925;-74
2023/04/21 10:12:56;;;;;;;;;;;;;;;-140.72;0.00;52557.25;5029051;28;20291;-73
2023/04/21 10:15:51;;;;;;;;;;;;;;;-140.72;0.00;52522.75;5026150;28;19921;-75
2023/04/21 10:18:20;;;;;;;;;;;;;;;-140.72;0.00;52520.72;5034432;28;19933;-74
2023/04/21 10:21:02;;;;;;;;;;;;;;;-140.72;0.00;52480.16;5017434;28;19937;-71
2023/04/21 10:23:29;;;;;;;;;;;;;;;-140.72;0.00;52541.03;5022307;28;19921;-71
2023/04/21 10:26:00;;;;;;;;;;;;;;;-140.72;0.00;52557.25;5022921;27;21217;-72
2023/04/21 10:28:37;;;;;;;;;;;;;;;-140.72;0.00;52500.44;5029635;28;19921;-72
2023/04/21 10:31:22;;;;;;;;;;;;;;;-140.72;0.00;52516.66;5026849;28;19921;-72
2023/04/21 10:34:09;;;;;;;;;;;;;;;-140.72;0.00;52506.53;5022846;28;19947;-72
2023/04/21 10:36:47;;;;;;;;;;;;;;;-140.72;0.00;52541.03;5029286;28;19921;-70
2023/04/21 10:39:25;;;;;;;;;;;;;;;-140.72;0.00;52492.31;5028757;28;19922;-70
2023/04/21 10:41:50;;;;;;;;;;;;;;;-140.72;0.00;52470.00;5030212;28;19921;-70
2023/04/21 10:44:16;;;;;;;;;;;;;;;-140.72;0.00;52354.34;5027798;28;19928;-71
2023/04/21 10:46:45;;;;;;;;;;;;;;;-140.72;0.00;52271.16;5036891;28;20428;-70
2023/04/21 10:49:19;;;;;;;;;;;;;;;-140.72;0.00;52281.28;5025472;28;20005;-70
2023/04/21 10:51:57;;;;;;;;;;;;;;;-140.72;0.00;52305.63;5027651;28;19944;-70
2023/04/21 10:54:25;;;;;;;;;;;;;;;-140.72;0.00;52277.22;5022398;28;19927;-71
2023/04/21 10:56:52;;;;;;;;;;;;;;;-140.72;0.00;52232.59;5028713;28;20008;-71
2023/04/21 10:59:17;;;;;;;;;;;;;;;-140.72;0.00;52155.50;5029352;28;20375;-71
2023/04/21 11:01:43;;;;;;;;;;;;;;;-140.72;0.00;52149.41;5063179;28;19921;-71
2023/04/21 11:04:16;;;;;;;;;;;;;;;-140.72;0.00;52139.25;5028703;28;19917;-73
2023/04/21 11:06:41;;;;;;;;;;;;;;;-140.72;0.00;52196.06;5031745;28;19929;-73
2023/04/21 11:09:06;;;;;;;;;;;;;;;-140.72;0.00;52131.16;5029129;28;19921;-75
2023/04/21 11:11:32;;;;;;;;;;;;;;;-140.72;0.00;52147.38;5033322;28;19929;-75
2023/04/21 11:14:00;;;;;;;;;;;;;;;-140.72;0.00;52078.38;5035467;28;19921;-75
2023/04/21 11:16:25;;;;;;;;;;;;;;;-140.72;0.00;52076.34;5041675;28;19967;-75
2023/04/21 11:18:51;;;;;;;;;;;;;;;-140.72;0.00;52031.72;5018301;27;19968;-72
2023/04/21 11:21:17;;;;;;;;;;;;;;;-140.72;0.00;52021.56;5030735;27;20023;-71
2023/04/21 11:23:52;;;;;;;;;;;;;;;-140.72;0.00;52017.53;5027837;28;19970;-72
2023/04/21 11:26:19;;;;;;;;;;;;;;;-140.72;0.00;51981.00;5021435;28;19975;-71
2023/04/21 11:28:48;;;;;;;;;;;;;;;-140.72;0.00;52216.34;5027742;28;19928;-72
2023/04/21 11:31:13;;;;;;;;;;;;;;;-140.72;0.00;52218.38;5027460;28;19928;-70
2023/04/21 11:33:38;;;;;;;;;;;;;;;-140.72;0.00;52323.91;5019871;28;19922;-69
2023/04/21 11:36:07;;;;;;;;;;;;;;;-140.72;0.00;52346.22;5025628;28;19971;-71
2023/04/21 11:38:35;;;;;;;;;;;;;;;-140.72;0.00;52256.94;5026758;28;19925;-70
2023/04/21 11:41:01;;;;;;;;;;;;;;;-140.72;0.00;52321.88;5023132;28;20061;-73
2023/04/21 11:43:26;;;;;;;;;;;;;;;-140.72;0.00;52263.03;5028115;27;20038;-72
2023/04/21 11:45:51;;;;;;;;;;;;;;;-140.72;0.00;52307.66;5028186;28;20017;-72
2023/04/21 11:48:18;;;;;;;;;;;;;;;-140.72;0.00;52319.84;5026575;28;19932;-71
2023/04/21 11:50:49;;;;;;;;;;;;;;;-140.72;0.00;52198.09;5029304;28;20058;-72
2023/04/21 11:53:18;;;;;;;;;;;;;;;-140.72;0.00;52110.84;5046189;28;19928;-72
2023/04/21 11:55:44;;;;;;;;;;;;;;;-140.72;0.00;52228.53;5030492;28;20354;-70
2023/04/21 11:58:11;;;;;;;;;;;;;;;-140.72;0.00;52240.72;5047995;28;20394;-71
2023/04/21 12:00:36;;;;;;;;;;;;;;;-140.72;0.00;52200.13;5029742;28;19921;-72
2023/04/21 12:03:01;;;;;;;;;;;;;;;-140.72;0.00;52256.94;5027548;28;19928;-70
2023/04/21 12:05:38;;;;;;;;;;;;;;;-140.72;0.00;52173.75;5020672;28;20016;-72
2023/04/21 12:08:05;;;;;;;;;;;;;;;-140.72;0.00;52149.41;5029447;28;19998;-73
2023/04/21 12:10:30;;;;;;;;;;;;;;;-140.72;0.00;52208.25;5030404;28;19927;-72
2023/04/21 12:12:56;;;;;;;;;;;;;;;-140.72;0.00;52303.59;5027332;28;20363;-73
2023/04/21 12:15:24;;;;;;;;;;;;;;;-140.72;0.00;52187.97;5017394;28;20368;-73
2023/04/21 12:20:50;;;;;;;;;;;;;;;-140.72;0.00;51981.00;5023667;28;19970;-73
2023/04/21 12:23:15;;;;;;;;;;;;;;;-140.72;0.00;52234.63;5060308;28;20409;-72